Santiago, Dominican Republic

11:38 AM AST on September 02, 2014 (GMT -0400)
Cibao International | Change Station
CLOSE
Current Station
Airport
Location: Santiago,
Elevation: 564 ft
Nearby Weather Stations

Elev 564 ft 19.41 °N, 70.60 °W | Updated 38 minutes ago

Scattered Clouds
Scattered Clouds
84 °F
Feels Like 94 °F
N
14
Wind Variable Wind from ESE

Today
High -- | Low -- °F
--% Chance of Precip.
Yesterday
High -- | Low -- °F
Precip. -- in
6:27 AM 6:56 PM
First Quarter, 52% visible
Pressure 30.01 in
Visibility 6.2 miles
Clouds Scattered Clouds 2200 ft
Heat Index 94 °F
Dew Point 77 °F
Humidity 79%
Rainfall 0.00 in
Snow Depth Not available.
UV 12 out of 12
Pollen Not available.
Air Quality Not available.
Flu Activity Not available.
METAR MDST 021500Z 12012KT 9999 SCT022 ST300 29/25 Q1016 NOSIG

More Conditions Fewer Conditions

Pressure 30.01 in
Visibility 6.2 miles
Clouds Scattered Clouds 2200 ft
Heat Index 94 °F
Dew Point 77 °F
Humidity 79%
Rainfall 0.00 in
Snow Depth Not available.
UV 12 out of 12
Pollen Not available.
Air Quality Not available.
Flu Activity Not available.
METAR MDST 021500Z 12012KT 9999 SCT022 ST300 29/25 Q1016 NOSIG

More Conditions Fewer Conditions

10-Day Weather Forecast

Almanac

Astronomy

Sep. 02, 2014 Rise Set
Actual Time 6:27 AM AST 6:56 PM AST
Civil Twilight 6:05 AM AST 7:19 PM AST
Nautical Twilight 5:39 AM AST 7:45 PM AST
Astronomical Twilight 5:13 AM AST 8:11 PM AST
Moon 1:13 PM AST No Moon Set
Length of Visible Light 13h 13m
Length of Day
12h 29m
Tomorrow will be 1m 4s shorter.
First Quarter, 52% of the Moon is Illuminated
Today
First Quarter
Sep 8
Full
Sep 15
Last Quarter
Sep 24
New
Oct 1
First Quarter

Today's Extremes

Country Highs Country Lows

Community

WunderPhotos

Upload Photos

1,749,700 photos uploaded!

Nearby

Snow Depth

Not available.

Earthquake Activity

City Distance Mag. Time & Date
No recent earthquake activity has been reported nearby.
Minimum magnitude displayed is 2.5.

Coastal Water Temperatures

Place Temperature
No Stations Reporting

Nearby Weather Stations